Aurora, NE

3:58 AM CST on December 07, 2016 (GMT -0600)
Aurora Municipal | | Change Station

Elev 1804 ft 40.89 °N, 97.99 °W | Updated 23 minutes ago

Mostly Cloudy
Mostly Cloudy
17 °F
Feels Like 3 °F
N
13
Wind Variable Wind from North

Today
High -- | Low -- °F
--% Chance of Precip.
Yesterday
High -- | Low -- °F
Precip. -- in
Pressure 30.18 in
Visibility 10.0 miles
Clouds Mostly Cloudy 10000 ft
Windchill 3 °F
Dew Point 6 °F
Humidity 63%
Rainfall 0.00 in
Snow Depth Not available.
7:43 AM 5:03 PM
Waxing Crescent, 51% visible
METAR KAUH 070935Z AUTO 35011KT 10SM BKN100 M08/M14 A3018 RMK AO2 T10851145
Pressure 30.18 in
Visibility 10.0 miles
Clouds Mostly Cloudy 10000 ft
Windchill 3 °F
Dew Point 6 °F
Humidity 63%
Rainfall 0.00 in
Snow Depth Not available.
7:43 AM 5:03 PM
Waxing Crescent, 51% visible
METAR KAUH 070935Z AUTO 35011KT 10SM BKN100 M08/M14 A3018 RMK AO2 T10851145

10-Day Weather Forecast

Almanac

Astronomy

Dec. 07, 2016 Rise Set
Actual Time
Civil Twilight
Nautical Twilight
Astronomical Twilight
Moon
Length of Visible Light
Length of Day
Tomorrow will be .
, % of the Moon is Illuminated

Today's Extremes

State Highs State Lows

Community

WunderPhotos

Upload Photos

1,956,111 photos uploaded!

WunderBlog® & News

Nearby

Air Quality

  Air Quality AQ Index Pollutant
Not available.

Snow Depth

Station Depth Elevation

Earthquake Activity

City Distance Mag. Time & Date
Minimum magnitude displayed is 2.5.

Coastal Water Temperatures

Place Temperature

Stations

Nearby Weather Stations

Station Location Temp. Windchill Dew Point Humidity Wind Precip. Elev Updated Type
                   

Watches & Warnings

There are currently no watches in effect.